createdAt,value
2023-07-05T00:02:12.050Z,61.88
2023-07-05T00:04:39.508Z,62.40
2023-07-05T00:07:06.785Z,61.94
2023-07-05T00:09:33.787Z,63.22
2023-07-05T00:12:00.887Z,63.29
2023-07-05T00:14:29.275Z,62.64
2023-07-05T00:16:56.776Z,62.27
2023-07-05T00:19:23.804Z,62.00
2023-07-05T00:21:50.810Z,61.10
2023-07-05T00:24:18.246Z,61.53
2023-07-05T00:26:45.387Z,61.72
2023-07-05T00:29:12.595Z,60.81
2023-07-05T00:31:39.798Z,60.35
2023-07-05T00:34:06.923Z,61.83
2023-07-05T00:36:33.919Z,62.27
2023-07-05T00:39:00.962Z,66.60
2023-07-05T00:41:28.067Z,67.68
2023-07-05T00:43:55.290Z,65.37
2023-07-05T00:46:30.874Z,69.54
2023-07-05T00:49:05.890Z,71.81
2023-07-05T00:51:47.617Z,75.76
2023-07-05T00:54:19.501Z,71.08
2023-07-05T00:56:54.994Z,68.87
2023-07-05T00:59:25.666Z,69.80
2023-07-05T01:02:02.704Z,74.27
2023-07-05T01:04:34.341Z,68.57
2023-07-05T01:07:02.062Z,71.11
2023-07-05T01:09:30.959Z,74.90
2023-07-05T01:12:22.769Z,74.50
2023-07-05T01:15:15.140Z,76.43
2023-07-05T01:18:14.999Z,77.39
2023-07-05T01:21:11.991Z,74.31
2023-07-05T01:24:01.982Z,72.14
2023-07-05T01:26:49.084Z,76.37
2023-07-05T01:29:40.759Z,75.02
2023-07-05T01:32:34.845Z,76.75
2023-07-05T01:35:12.895Z,76.93
2023-07-05T01:37:43.743Z,73.19
2023-07-05T01:40:22.640Z,77.63
2023-07-05T01:43:02.013Z,81.49
2023-07-05T01:46:02.379Z,76.68
2023-07-05T01:49:09.203Z,77.08
2023-07-05T01:52:16.591Z,77.20
2023-07-05T01:55:02.156Z,78.81
2023-07-05T01:57:41.713Z,82.14
2023-07-05T02:00:20.753Z,83.74
2023-07-05T02:03:09.013Z,80.12
2023-07-05T02:05:36.877Z,79.74
2023-07-05T02:08:05.351Z,80.40
2023-07-05T02:10:33.748Z,81.48
2023-07-05T02:13:53.712Z,80.00
2023-07-05T02:16:20.829Z,83.14
2023-07-05T02:18:47.942Z,82.03
2023-07-05T02:21:15.611Z,84.19
2023-07-05T02:23:42.677Z,83.80
2023-07-05T02:26:09.848Z,83.50
2023-07-05T02:28:37.112Z,82.59
2023-07-05T02:31:10.464Z,84.86
2023-07-05T02:33:37.566Z,84.27
2023-07-05T02:36:11.293Z,84.64
2023-07-05T02:38:39.779Z,82.27
2023-07-05T02:41:07.961Z,82.43
2023-07-05T02:43:35.297Z,83.07
2023-07-05T02:46:02.712Z,81.65
2023-07-05T02:48:30.397Z,83.28
2023-07-05T02:50:57.460Z,82.62
2023-07-05T02:53:24.571Z,81.00
2023-07-05T02:55:52.482Z,82.74
2023-07-05T02:58:19.749Z,85.68
2023-07-05T03:00:46.853Z,84.82
2023-07-05T03:03:13.943Z,85.62
2023-07-05T03:05:41.061Z,87.44
2023-07-05T03:08:08.104Z,86.03
2023-07-05T03:10:40.643Z,88.08
2023-07-05T03:13:07.714Z,89.17
2023-07-05T03:15:34.809Z,90.15
2023-07-05T03:18:01.889Z,89.48
2023-07-05T03:20:29.674Z,89.79
2023-07-05T03:22:56.776Z,89.23
2023-07-05T03:25:23.923Z,89.65
2023-07-05T03:27:51.877Z,89.13
2023-07-05T03:30:18.999Z,87.69
2023-07-05T03:32:46.431Z,87.28
2023-07-05T03:35:15.650Z,89.38
2023-07-05T03:37:43.410Z,86.55
2023-07-05T03:40:10.928Z,86.55
2023-07-05T03:42:38.368Z,87.62
2023-07-05T03:45:05.910Z,86.42
2023-07-05T03:47:33.052Z,84.58
2023-07-05T03:50:00.302Z,83.79
2023-07-05T03:52:27.416Z,86.66
2023-07-05T03:54:54.482Z,85.23
2023-07-05T03:57:21.510Z,83.25
2023-07-05T03:59:48.804Z,83.70
2023-07-05T04:02:15.904Z,84.26
2023-07-05T04:04:45.442Z,83.39
2023-07-05T04:07:12.433Z,83.72
2023-07-05T04:09:39.521Z,83.03
2023-07-05T04:12:07.219Z,82.43
2023-07-05T04:14:34.274Z,84.39
2023-07-05T04:17:01.405Z,83.32
2023-07-05T04:19:28.500Z,82.95
2023-07-05T04:21:55.615Z,84.09
2023-07-05T04:24:22.629Z,83.13
2023-07-05T04:26:49.656Z,83.69
2023-07-05T04:29:16.661Z,84.83
2023-07-05T04:31:43.708Z,82.90
2023-07-05T04:34:10.713Z,84.92
2023-07-05T04:36:37.767Z,83.80
2023-07-05T04:39:04.797Z,82.39
2023-07-05T04:41:31.883Z,81.96
2023-07-05T04:43:59.010Z,82.91
2023-07-05T04:46:26.101Z,82.51
2023-07-05T04:48:53.214Z,82.76
2023-07-05T04:51:20.667Z,83.68
2023-07-05T04:53:47.668Z,81.71
2023-07-05T04:56:16.508Z,82.37
2023-07-05T04:58:44.115Z,82.49
2023-07-05T05:01:14.507Z,80.90
2023-07-05T05:03:42.440Z,80.36
2023-07-05T05:06:09.473Z,82.16
2023-07-05T05:08:36.517Z,82.12
2023-07-05T05:11:05.683Z,83.05
2023-07-05T05:13:35.618Z,83.98
2023-07-05T05:16:03.876Z,83.63
2023-07-05T05:18:35.046Z,83.04
2023-07-05T05:21:02.330Z,82.47
2023-07-05T05:23:30.666Z,82.41
2023-07-05T05:25:58.129Z,83.12
2023-07-05T05:28:25.147Z,82.65
2023-07-05T05:30:52.292Z,84.88
2023-07-05T05:33:19.780Z,84.80
2023-07-05T05:35:50.969Z,85.00
2023-07-05T05:38:20.065Z,83.94
2023-07-05T05:40:51.085Z,84.01
2023-07-05T05:43:19.791Z,85.49
2023-07-05T05:45:47.488Z,83.48
2023-07-05T05:48:14.726Z,83.55
2023-07-05T05:50:41.830Z,83.96
2023-07-05T05:53:11.498Z,83.90
2023-07-05T05:55:40.461Z,83.71
2023-07-05T05:58:08.431Z,83.77
2023-07-05T06:00:35.603Z,84.47
2023-07-05T06:03:03.025Z,83.25
2023-07-05T06:05:32.178Z,84.80
2023-07-05T06:07:59.321Z,85.30
2023-07-05T06:10:26.481Z,85.48
2023-07-05T06:12:53.508Z,85.49
2023-07-05T06:15:20.522Z,84.28
2023-07-05T06:17:47.609Z,83.41
2023-07-05T06:20:18.403Z,83.35
2023-07-05T06:22:45.488Z,83.65
2023-07-05T06:25:12.626Z,83.83
2023-07-05T06:27:40.278Z,82.66
2023-07-05T06:30:08.674Z,83.11
2023-07-05T06:32:36.481Z,81.99
2023-07-05T06:35:04.374Z,82.67
2023-07-05T06:37:31.567Z,83.19
2023-07-05T06:39:58.710Z,82.67
2023-07-05T06:42:27.502Z,82.42
2023-07-05T06:45:00.989Z,82.10
2023-07-05T06:47:28.099Z,81.85
2023-07-05T06:49:55.118Z,82.20
2023-07-05T06:52:22.105Z,82.19
2023-07-05T06:54:49.127Z,82.06
2023-07-05T06:57:16.343Z,81.84
2023-07-05T06:59:45.888Z,80.72
2023-07-05T07:02:13.161Z,80.48
2023-07-05T07:04:40.334Z,79.68
2023-07-05T07:07:07.983Z,77.78
2023-07-05T07:09:35.565Z,77.31
2023-07-05T07:12:02.603Z,77.21
2023-07-05T07:14:29.607Z,76.62
2023-07-05T07:16:57.121Z,76.74
2023-07-05T07:19:24.220Z,76.75
2023-07-05T07:21:51.713Z,74.84
2023-07-05T07:24:20.735Z,74.12
2023-07-05T07:26:47.792Z,74.21
2023-07-05T07:29:14.841Z,73.79
2023-07-05T07:31:41.895Z,73.83
2023-07-05T07:34:09.046Z,73.09
2023-07-05T07:36:37.518Z,71.88
2023-07-05T07:39:05.318Z,72.19
2023-07-05T07:41:36.892Z,71.77
2023-07-05T07:44:10.142Z,71.84
2023-07-05T07:46:40.084Z,71.59
2023-07-05T07:49:10.365Z,70.74
2023-07-05T07:51:40.456Z,68.69
2023-07-05T07:54:17.357Z,68.29
2023-07-05T07:56:47.470Z,68.93
2023-07-05T07:59:15.057Z,69.37
2023-07-05T08:01:42.703Z,69.63
2023-07-05T08:04:12.611Z,70.18
2023-07-05T08:06:47.670Z,70.25
2023-07-05T08:09:22.141Z,68.96
2023-07-05T08:11:49.746Z,68.18
2023-07-05T08:14:18.652Z,67.94
2023-07-05T08:16:46.915Z,67.82
2023-07-05T08:19:15.922Z,65.70
2023-07-05T08:21:45.443Z,65.59
2023-07-05T08:24:24.634Z,66.04
2023-07-05T08:26:54.419Z,65.75
2023-07-05T08:29:21.926Z,66.30
2023-07-05T08:31:49.999Z,65.81
2023-07-05T08:34:17.629Z,67.13
2023-07-05T08:36:45.052Z,65.17
2023-07-05T08:39:13.778Z,64.44
2023-07-05T08:41:46.452Z,64.50
2023-07-05T08:44:31.819Z,65.29
2023-07-05T08:47:04.467Z,64.59
2023-07-05T08:49:43.552Z,64.17
2023-07-05T08:52:37.609Z,64.01
2023-07-05T08:55:11.801Z,63.41
2023-07-05T08:57:53.950Z,63.71
2023-07-05T09:00:35.923Z,62.66
2023-07-05T09:03:03.145Z,63.33
2023-07-05T09:05:48.064Z,63.13
2023-07-05T09:08:58.269Z,60.49
2023-07-05T09:12:31.069Z,61.00
2023-07-05T09:15:00.781Z,60.13
2023-07-05T09:17:50.870Z,59.16
2023-07-05T09:20:41.353Z,61.22
2023-07-05T09:23:17.510Z,58.67
2023-07-05T09:25:55.755Z,59.08
2023-07-05T09:28:31.874Z,59.87
2023-07-05T09:31:02.577Z,59.90
2023-07-05T09:33:39.864Z,60.08
2023-07-05T09:36:23.841Z,59.96
2023-07-05T09:39:05.016Z,59.12
2023-07-05T09:41:45.470Z,58.59
2023-07-05T09:44:12.786Z,59.12
2023-07-05T09:46:40.146Z,57.80
2023-07-05T09:49:16.837Z,58.05
2023-07-05T09:51:47.141Z,57.52
2023-07-05T09:54:32.792Z,55.98
2023-07-05T09:57:07.863Z,57.90
2023-07-05T09:59:36.062Z,54.76
2023-07-05T10:02:13.975Z,55.15
2023-07-05T10:05:15.571Z,54.35
2023-07-05T10:07:56.812Z,55.24
2023-07-05T10:10:34.205Z,54.27
2023-07-05T10:13:16.958Z,55.41
2023-07-05T10:15:50.889Z,52.78
2023-07-05T10:18:41.025Z,54.97
2023-07-05T10:21:21.211Z,52.94
2023-07-05T10:23:49.305Z,52.60
2023-07-05T10:26:18.972Z,49.93
2023-07-05T10:28:47.325Z,51.70
2023-07-05T10:31:31.570Z,51.86
2023-07-05T10:34:14.341Z,51.67
2023-07-05T10:36:46.262Z,50.23
2023-07-05T10:39:22.227Z,50.36
2023-07-05T10:41:56.556Z,48.25
2023-07-05T10:44:37.755Z,50.77
2023-07-05T10:47:08.117Z,50.60
2023-07-05T10:49:37.601Z,50.15
2023-07-05T10:52:11.819Z,49.32
2023-07-05T10:55:20.971Z,49.70
2023-07-05T10:58:21.313Z,48.40
2023-07-05T11:01:28.108Z,48.89
2023-07-05T11:04:03.832Z,48.89
2023-07-05T11:06:33.100Z,48.31
2023-07-05T11:09:00.334Z,48.90
2023-07-05T11:11:33.372Z,48.57
2023-07-05T11:14:04.329Z,47.48
2023-07-05T11:16:33.313Z,48.31
2023-07-05T11:19:12.279Z,48.45
2023-07-05T11:21:51.471Z,48.32
2023-07-05T11:24:39.368Z,48.10
2023-07-05T11:27:24.939Z,47.80
2023-07-05T11:29:55.876Z,47.38
2023-07-05T11:32:49.345Z,45.48
2023-07-05T11:35:51.605Z,45.84
2023-07-05T11:38:36.659Z,45.99
2023-07-05T11:41:31.117Z,45.91
2023-07-05T11:44:29.834Z,44.70
2023-07-05T11:46:56.934Z,44.36
2023-07-05T11:49:28.257Z,46.05
2023-07-05T11:52:15.519Z,45.15
2023-07-05T11:55:16.509Z,45.40
2023-07-05T11:58:03.520Z,43.25
2023-07-05T12:00:38.769Z,44.14
2023-07-05T12:03:21.679Z,43.89
2023-07-05T12:06:16.523Z,42.56
2023-07-05T12:08:46.824Z,44.04
2023-07-05T12:11:15.556Z,44.25
2023-07-05T12:13:43.184Z,43.11
2023-07-05T12:16:19.190Z,43.09
2023-07-05T12:18:48.475Z,43.11
2023-07-05T12:21:15.547Z,42.39
2023-07-05T12:23:52.171Z,42.91
2023-07-05T12:26:31.184Z,38.90
2023-07-05T12:29:14.439Z,41.70
2023-07-05T12:31:41.652Z,42.69
2023-07-05T12:34:20.515Z,43.99
2023-07-05T12:36:47.722Z,42.17
2023-07-05T12:39:17.696Z,42.04
2023-07-05T12:41:57.900Z,42.96
2023-07-05T12:44:25.339Z,41.40
2023-07-05T12:46:52.388Z,40.44
2023-07-05T12:49:27.942Z,41.67
2023-07-05T12:51:59.279Z,40.55
2023-07-05T12:54:27.732Z,41.32
2023-07-05T12:56:56.928Z,39.85
2023-07-05T12:59:44.161Z,41.30
2023-07-05T13:02:31.047Z,41.21
2023-07-05T13:04:59.526Z,41.30
2023-07-05T13:07:27.652Z,42.17
2023-07-05T13:10:02.923Z,40.44
2023-07-05T13:12:56.632Z,39.83
2023-07-05T13:15:38.454Z,41.24
2023-07-05T13:18:31.584Z,37.79
2023-07-05T13:21:08.518Z,38.11
2023-07-05T13:23:35.528Z,37.91
2023-07-05T13:26:02.541Z,40.22
2023-07-05T13:28:32.507Z,39.57
2023-07-05T13:31:04.056Z,38.72
2023-07-05T13:33:38.094Z,37.86
2023-07-05T13:36:05.885Z,38.01
2023-07-05T13:38:36.048Z,38.61
2023-07-05T13:41:04.989Z,38.30
2023-07-05T13:43:34.226Z,37.39
2023-07-05T13:46:02.681Z,39.14
2023-07-05T13:48:30.963Z,38.64
2023-07-05T13:50:58.237Z,38.84
2023-07-05T13:53:29.719Z,38.45
2023-07-05T13:55:56.892Z,39.23
2023-07-05T13:58:25.084Z,38.24
2023-07-05T14:00:52.172Z,39.09
2023-07-05T14:03:19.483Z,38.24
2023-07-05T14:05:47.295Z,39.01
2023-07-05T14:08:16.484Z,38.42
2023-07-05T14:10:48.880Z,38.00
2023-07-05T14:13:17.744Z,38.23
2023-07-05T14:15:46.453Z,37.80
2023-07-05T14:18:19.152Z,37.13
2023-07-05T14:20:49.093Z,38.38
2023-07-05T14:23:17.848Z,37.72
2023-07-05T14:25:48.731Z,37.21
2023-07-05T14:28:16.190Z,38.30
2023-07-05T14:30:44.508Z,37.05
2023-07-05T14:33:18.083Z,36.87
2023-07-05T14:35:45.724Z,36.75
2023-07-05T14:38:12.825Z,36.84
2023-07-05T14:40:42.809Z,36.94
2023-07-05T14:43:11.406Z,37.23
2023-07-05T14:45:39.346Z,37.35
2023-07-05T14:48:06.821Z,36.38
2023-07-05T14:50:35.803Z,36.82
2023-07-05T14:53:07.471Z,35.33
2023-07-05T14:55:34.990Z,36.26
2023-07-05T14:58:02.034Z,36.46
2023-07-05T15:00:34.498Z,36.40
2023-07-05T15:03:12.893Z,36.35
2023-07-05T15:05:40.030Z,36.26
2023-07-05T15:08:07.375Z,35.15
2023-07-05T15:10:35.030Z,36.40
2023-07-05T15:13:02.450Z,35.48
2023-07-05T15:15:36.917Z,36.32
2023-07-05T15:18:06.801Z,35.30
2023-07-05T15:20:36.147Z,35.88
2023-07-05T15:23:04.271Z,36.49
2023-07-05T15:25:31.809Z,35.60
2023-07-05T15:27:59.149Z,36.64
2023-07-05T15:30:27.277Z,36.25
2023-07-05T15:32:54.625Z,36.49
2023-07-05T15:35:24.452Z,36.83
2023-07-05T15:37:51.766Z,35.85
2023-07-05T15:40:19.601Z,36.18
2023-07-05T15:42:50.201Z,36.04
2023-07-05T15:45:18.890Z,36.86
2023-07-05T15:47:47.173Z,36.26
2023-07-05T15:50:17.840Z,35.39
2023-07-05T15:52:46.182Z,36.87
2023-07-05T15:55:13.906Z,35.84
2023-07-05T15:57:42.297Z,36.01
2023-07-05T16:00:24.147Z,35.38
2023-07-05T16:02:58.919Z,35.65
2023-07-05T16:05:34.712Z,36.40
2023-07-05T16:08:05.216Z,36.63
2023-07-05T16:10:34.752Z,37.03
2023-07-05T16:13:03.107Z,36.56
2023-07-05T16:15:35.379Z,35.99
2023-07-05T16:18:08.163Z,36.16
2023-07-05T16:20:36.776Z,35.87
2023-07-05T16:23:04.830Z,36.16
2023-07-05T16:25:32.414Z,35.48
2023-07-05T16:27:59.701Z,36.08
2023-07-05T16:30:27.643Z,35.72
2023-07-05T16:32:54.750Z,37.22
2023-07-05T16:35:21.946Z,37.06
2023-07-05T16:37:52.554Z,36.16
2023-07-05T16:40:19.780Z,37.01
2023-07-05T16:42:50.144Z,36.10
2023-07-05T16:45:17.898Z,35.75
2023-07-05T16:47:45.140Z,34.81
2023-07-05T16:50:13.687Z,35.16
2023-07-05T16:52:40.715Z,35.51
2023-07-05T16:55:09.576Z,35.30
2023-07-05T16:57:36.710Z,34.67
2023-07-05T17:00:04.340Z,35.63
2023-07-05T17:02:32.720Z,34.96
2023-07-05T17:04:59.780Z,35.01
2023-07-05T17:07:26.986Z,35.19
2023-07-05T17:09:54.069Z,35.02
2023-07-05T17:12:21.229Z,35.58
2023-07-05T17:14:49.857Z,35.27
2023-07-05T17:17:17.862Z,34.74
2023-07-05T17:19:45.001Z,35.57
2023-07-05T17:22:12.831Z,34.88
2023-07-05T17:24:39.804Z,35.23
2023-07-05T17:27:07.085Z,34.84
2023-07-05T17:29:34.117Z,35.42
2023-07-05T17:32:02.137Z,35.32
2023-07-05T17:34:30.574Z,34.70
2023-07-05T17:36:58.036Z,35.13
2023-07-05T17:39:25.799Z,35.14
2023-07-05T17:41:53.858Z,35.69
2023-07-05T17:44:23.113Z,35.88
2023-07-05T17:46:50.308Z,34.96
2023-07-05T17:49:17.726Z,35.81
2023-07-05T17:51:44.836Z,36.16
2023-07-05T17:54:12.745Z,36.19
2023-07-05T17:56:41.135Z,36.08
2023-07-05T17:59:10.534Z,36.41
2023-07-05T18:01:37.736Z,36.46
2023-07-05T18:04:05.994Z,36.36
2023-07-05T18:06:33.628Z,36.23
2023-07-05T18:09:01.152Z,35.99
2023-07-05T18:11:28.313Z,36.22
2023-07-05T18:13:56.222Z,35.85
2023-07-05T18:16:24.035Z,35.86
2023-07-05T18:18:51.183Z,35.03
2023-07-05T18:21:18.585Z,36.00
2023-07-05T18:23:48.418Z,35.70
2023-07-05T18:26:18.077Z,35.93
2023-07-05T18:28:47.433Z,35.93
2023-07-05T18:31:14.849Z,36.57
2023-07-05T18:33:42.793Z,36.43
2023-07-05T18:36:11.717Z,36.60
2023-07-05T18:38:39.488Z,36.76
2023-07-05T18:41:13.751Z,36.74
2023-07-05T18:43:41.188Z,36.84
2023-07-05T18:46:09.413Z,36.53
2023-07-05T18:48:41.025Z,36.95
2023-07-05T18:51:09.101Z,36.72
2023-07-05T18:53:36.914Z,36.70
2023-07-05T18:56:09.552Z,37.18
2023-07-05T18:58:36.637Z,37.13
2023-07-05T19:01:09.780Z,37.08
2023-07-05T19:03:36.921Z,37.22
2023-07-05T19:06:09.777Z,37.31
2023-07-05T19:08:38.449Z,37.87
2023-07-05T19:11:12.285Z,37.90
2023-07-05T19:13:43.085Z,37.73
2023-07-05T19:16:12.638Z,37.70
2023-07-05T19:18:40.550Z,38.10
2023-07-05T19:21:08.693Z,37.82
2023-07-05T19:23:38.652Z,38.60
2023-07-05T19:26:10.386Z,38.01
2023-07-05T19:28:38.593Z,38.27
2023-07-05T19:31:32.977Z,37.87
2023-07-05T19:33:59.950Z,38.44
2023-07-05T19:36:27.769Z,38.52
2023-07-05T19:38:56.287Z,38.51
2023-07-05T19:41:24.217Z,38.43
2023-07-05T19:43:51.487Z,38.53
2023-07-05T19:46:24.352Z,38.63
2023-07-05T19:48:58.358Z,38.83
2023-07-05T19:51:25.540Z,38.49
2023-07-05T19:53:53.291Z,39.00
2023-07-05T19:56:21.314Z,38.90
2023-07-05T19:58:48.587Z,39.45
2023-07-05T20:01:18.323Z,39.27
2023-07-05T20:03:46.740Z,39.34
2023-07-05T20:06:13.889Z,39.10
2023-07-05T20:08:43.455Z,39.42
2023-07-05T20:11:14.541Z,39.29
2023-07-05T20:13:42.827Z,39.50
2023-07-05T20:16:09.989Z,39.98
2023-07-05T20:18:37.066Z,39.47
2023-07-05T20:21:10.293Z,39.79
2023-07-05T20:23:42.910Z,39.59
2023-07-05T20:26:10.478Z,39.88
2023-07-05T20:31:04.580Z,40.08
2023-07-05T20:33:32.860Z,39.74
2023-07-05T20:36:02.294Z,40.06
2023-07-05T20:38:30.746Z,40.17
2023-07-05T20:40:58.440Z,39.93
2023-07-05T20:43:26.169Z,39.89
2023-07-05T20:46:02.879Z,40.33
2023-07-05T20:48:30.479Z,40.09
2023-07-05T20:51:08.030Z,40.39
2023-07-05T20:53:35.409Z,40.44
2023-07-05T20:56:03.637Z,40.30
2023-07-05T20:58:36.377Z,40.60
2023-07-05T21:01:06.559Z,40.83
2023-07-05T21:03:34.064Z,40.49
2023-07-05T21:06:02.245Z,41.17
2023-07-05T21:08:33.432Z,41.17
2023-07-05T21:11:00.736Z,40.99
2023-07-05T21:13:30.239Z,40.78
2023-07-05T21:16:04.428Z,40.74
2023-07-05T21:18:32.753Z,40.87
2023-07-05T21:21:01.374Z,40.68
2023-07-05T21:23:31.105Z,40.84
2023-07-05T21:26:01.310Z,41.17
2023-07-05T21:28:28.874Z,40.75
2023-07-05T21:30:59.261Z,41.07
2023-07-05T21:33:27.689Z,41.21
2023-07-05T21:35:58.642Z,40.68
2023-07-05T21:38:27.812Z,41.48
2023-07-05T21:40:58.360Z,42.26
2023-07-05T21:43:27.102Z,42.51
2023-07-05T21:45:54.701Z,44.04
2023-07-05T21:48:29.371Z,44.03
2023-07-05T21:50:58.974Z,43.42
2023-07-05T21:53:26.251Z,44.40
2023-07-05T21:56:01.151Z,44.59
2023-07-05T21:58:33.673Z,44.63
2023-07-05T22:01:03.009Z,43.00
2023-07-05T22:03:30.909Z,44.57
2023-07-05T22:05:59.414Z,44.63
2023-07-05T22:08:26.966Z,45.09
2023-07-05T22:10:55.962Z,44.87
2023-07-05T22:13:25.091Z,45.06
2023-07-05T22:15:52.736Z,45.83
2023-07-05T22:18:19.875Z,45.78
2023-07-05T22:20:49.454Z,46.33
2023-07-05T22:23:16.759Z,46.69
2023-07-05T22:25:44.139Z,45.91
2023-07-05T22:28:11.261Z,46.79
2023-07-05T22:30:38.710Z,46.62
2023-07-05T22:33:06.441Z,47.03
2023-07-05T22:35:35.291Z,47.16
2023-07-05T22:38:02.467Z,47.21
2023-07-05T22:40:30.537Z,47.15
2023-07-05T22:42:58.142Z,46.28
2023-07-05T22:45:26.452Z,46.23
2023-07-05T22:47:53.738Z,45.62
2023-07-05T22:50:20.923Z,45.52
2023-07-05T22:52:47.944Z,45.13
2023-07-05T22:55:16.609Z,44.92
2023-07-05T22:57:44.174Z,45.07
2023-07-05T23:00:23.087Z,44.61
2023-07-05T23:02:51.305Z,45.55
2023-07-05T23:05:22.829Z,45.33
2023-07-05T23:07:50.055Z,46.39
2023-07-05T23:10:17.220Z,47.07
2023-07-05T23:12:44.320Z,46.88
2023-07-05T23:15:11.840Z,47.83
2023-07-05T23:20:10.652Z,48.23
2023-07-05T23:22:37.834Z,48.47
2023-07-05T23:25:05.286Z,47.96
2023-07-05T23:27:32.307Z,49.01
2023-07-05T23:30:00.686Z,48.67
2023-07-05T23:32:29.393Z,49.30
2023-07-05T23:34:57.019Z,49.81
2023-07-05T23:37:24.969Z,49.88
2023-07-05T23:39:52.457Z,48.89
2023-07-05T23:42:20.439Z,48.99
2023-07-05T23:44:49.677Z,49.58
2023-07-05T23:47:16.986Z,50.17
2023-07-05T23:49:47.237Z,48.73
2023-07-05T23:52:14.885Z,48.16
2023-07-05T23:54:43.831Z,48.63
2023-07-05T23:57:10.899Z,49.63
2023-07-05T23:59:38.026Z,49.48
